createdAt,value
2022-10-01T08:35:55.177Z,9.80
2022-10-01T08:38:47.331Z,9.80
2022-10-01T08:41:24.390Z,9.90
2022-10-01T08:46:53.266Z,10.00
2022-10-01T08:49:47.812Z,10.00
2022-10-01T08:52:39.593Z,10.10
2022-10-01T08:55:19.342Z,10.10
2022-10-01T08:57:53.543Z,9.70
2022-10-01T09:00:21.395Z,10.30
2022-10-01T09:02:49.600Z,10.20
2022-10-01T09:05:51.336Z,10.20
2022-10-01T09:08:21.105Z,10.20
2022-10-01T09:11:00.760Z,10.20
2022-10-01T09:13:53.752Z,10.40
2022-10-01T09:17:03.045Z,10.30
2022-10-01T09:19:57.685Z,9.60
2022-10-01T09:22:44.638Z,10.10
2022-10-01T09:25:20.868Z,10.20
2022-10-01T09:28:25.069Z,10.20
2022-10-01T09:31:17.197Z,10.30
2022-10-01T09:33:56.482Z,10.30
2022-10-01T09:36:47.668Z,10.10
2022-10-01T09:39:48.855Z,10.40
2022-10-01T09:42:15.723Z,10.50
2022-10-01T09:44:42.874Z,10.50
2022-10-01T09:47:22.901Z,10.40
2022-10-01T09:49:50.319Z,10.50
2022-10-01T09:52:31.495Z,10.40
2022-10-01T09:55:35.795Z,10.40
2022-10-01T09:58:34.911Z,10.50
2022-10-01T10:01:01.755Z,10.40
2022-10-01T10:06:12.648Z,11.00
2022-10-01T10:08:44.854Z,10.70
2022-10-01T10:11:22.713Z,10.50
2022-10-01T10:13:55.068Z,10.90
2022-10-01T10:16:38.673Z,10.60
2022-10-01T10:19:14.177Z,10.60
2022-10-01T10:22:01.350Z,10.60
2022-10-01T10:24:35.330Z,10.60
2022-10-01T10:27:06.475Z,11.00
2022-10-01T10:29:41.400Z,10.70
2022-10-01T10:32:33.073Z,10.90
2022-10-01T10:35:07.245Z,10.80
2022-10-01T10:37:37.526Z,10.80
2022-10-01T10:40:15.361Z,10.90
2022-10-01T10:42:51.150Z,10.80
2022-10-01T10:45:22.798Z,10.80
2022-10-01T10:47:52.945Z,10.90
2022-10-01T10:50:32.334Z,10.90
2022-10-01T10:52:59.394Z,11.40
2022-10-01T10:58:45.121Z,11.00
2022-10-01T11:01:21.302Z,11.10
2022-10-01T11:04:00.569Z,11.30
2022-10-01T11:06:28.216Z,11.30
2022-10-01T11:09:02.235Z,11.40
2022-10-01T11:12:06.170Z,11.50
2022-10-01T11:14:48.875Z,11.40
2022-10-01T11:17:18.789Z,11.30
2022-10-01T11:20:22.806Z,11.70
2022-10-01T11:23:05.681Z,11.30
2022-10-01T11:25:52.549Z,11.40
2022-10-01T11:28:46.249Z,11.50
2022-10-01T11:31:52.232Z,11.50
2022-10-01T11:35:03.878Z,11.40
2022-10-01T11:38:03.195Z,11.60
2022-10-01T11:40:43.308Z,11.90
2022-10-01T11:43:42.368Z,11.90
2022-10-01T11:46:14.440Z,12.10
2022-10-01T11:48:53.406Z,12.50
2022-10-01T11:51:27.108Z,12.90
2022-10-01T11:54:03.255Z,12.80
2022-10-01T11:56:57.354Z,12.80
2022-10-01T11:59:24.185Z,12.90
2022-10-01T12:02:19.212Z,13.10
2022-10-01T12:05:17.326Z,12.40
2022-10-01T12:08:09.389Z,12.30
2022-10-01T12:10:52.893Z,12.40
2022-10-01T12:13:40.234Z,12.30
2022-10-01T12:16:16.643Z,12.40
2022-10-01T12:18:57.617Z,12.40
2022-10-01T12:21:29.740Z,12.50
2022-10-01T12:24:07.063Z,12.70
2022-10-01T12:26:53.050Z,12.50
2022-10-01T12:29:29.103Z,12.50
2022-10-01T12:32:04.343Z,12.70
2022-10-01T12:34:54.163Z,13.10
2022-10-01T12:37:58.956Z,13.20
2022-10-01T12:40:41.622Z,13.00
2022-10-01T12:43:27.810Z,13.40
2022-10-01T12:46:27.442Z,13.40
2022-10-01T12:49:08.432Z,13.30
2022-10-01T12:51:52.679Z,13.20
2022-10-01T12:54:42.627Z,13.10
2022-10-01T12:57:18.661Z,13.00
2022-10-01T13:00:18.509Z,12.90
2022-10-01T13:03:12.822Z,13.00
2022-10-01T13:05:56.721Z,13.10
2022-10-01T13:08:32.409Z,13.40
2022-10-01T13:11:20.583Z,13.40
2022-10-01T13:13:52.456Z,13.90
2022-10-01T13:16:38.806Z,14.00
2022-10-01T13:19:19.000Z,14.00
2022-10-01T13:22:23.763Z,14.20
2022-10-01T13:25:01.005Z,14.10
2022-10-01T13:27:47.138Z,14.00
2022-10-01T13:30:24.069Z,14.30
2022-10-01T13:32:57.844Z,14.80
2022-10-01T13:35:24.507Z,15.10
2022-10-01T13:37:51.594Z,14.70
2022-10-01T13:40:26.019Z,13.90
2022-10-01T13:42:59.163Z,14.40
2022-10-01T13:45:34.253Z,14.40
2022-10-01T13:48:05.541Z,14.40
2022-10-01T13:50:32.557Z,14.30
2022-10-01T13:53:20.804Z,14.10
2022-10-01T13:55:48.764Z,14.00
2022-10-01T13:58:38.489Z,14.10
2022-10-01T14:01:41.732Z,14.10
2022-10-01T14:04:23.503Z,14.20
2022-10-01T14:06:58.836Z,14.30
2022-10-01T14:09:30.256Z,14.50
2022-10-01T14:12:40.722Z,15.10
2022-10-01T14:15:42.318Z,14.70
2022-10-01T14:18:22.153Z,14.80
2022-10-01T14:21:16.854Z,14.50
2022-10-01T14:23:48.574Z,14.60
2022-10-01T14:26:21.156Z,14.40
2022-10-01T14:29:25.480Z,14.30
2022-10-01T14:32:12.385Z,14.10
2022-10-01T14:35:19.373Z,14.10
2022-10-01T14:37:46.581Z,14.10
2022-10-01T14:40:18.014Z,14.10
2022-10-01T14:42:55.893Z,13.80
2022-10-01T14:45:22.717Z,13.80
2022-10-01T14:48:04.270Z,13.80
2022-10-01T14:50:34.476Z,13.80
2022-10-01T14:53:01.548Z,13.80
2022-10-01T14:55:29.383Z,13.90
2022-10-01T14:57:57.592Z,13.80
2022-10-01T15:00:28.557Z,13.80
2022-10-01T15:03:13.274Z,13.80
2022-10-01T15:05:40.117Z,13.90
2022-10-01T15:08:23.944Z,13.80
2022-10-01T15:10:53.031Z,13.70
2022-10-01T15:13:40.842Z,13.80
2022-10-01T15:16:19.783Z,13.50
2022-10-01T15:18:56.587Z,13.60
2022-10-01T15:21:34.716Z,13.50
2022-10-01T15:24:04.273Z,13.40
2022-10-01T15:26:32.841Z,13.20
2022-10-01T15:29:05.292Z,13.10
2022-10-01T15:31:33.792Z,13.00
2022-10-01T15:34:02.580Z,13.00
2022-10-01T15:36:29.729Z,13.10
2022-10-01T15:38:57.275Z,13.30
2022-10-01T15:41:32.880Z,13.10
2022-10-01T15:44:03.493Z,12.90
2022-10-01T15:46:33.357Z,13.00
2022-10-01T15:49:12.568Z,13.10
2022-10-01T15:52:07.251Z,13.10
2022-10-01T15:54:34.786Z,13.10
2022-10-01T15:57:03.049Z,13.10
2022-10-01T15:59:30.596Z,13.40
2022-10-01T16:01:57.480Z,13.10
2022-10-01T16:04:24.343Z,13.10
2022-10-01T16:06:52.110Z,13.10
2022-10-01T16:09:27.800Z,13.10
2022-10-01T16:11:56.725Z,13.10
2022-10-01T16:14:23.493Z,13.30
2022-10-01T16:16:50.851Z,13.00
2022-10-01T16:19:31.225Z,13.30
2022-10-01T16:22:19.459Z,13.10
2022-10-01T16:24:47.485Z,13.20
2022-10-01T16:27:42.283Z,13.00
2022-10-01T16:30:08.995Z,13.10
2022-10-01T16:32:36.284Z,13.20
2022-10-01T16:35:17.664Z,13.10
2022-10-01T16:37:45.680Z,13.20
2022-10-01T16:40:16.153Z,13.10
2022-10-01T16:42:44.902Z,13.20
2022-10-01T16:45:20.177Z,13.20
2022-10-01T16:47:47.013Z,13.20
2022-10-01T16:50:15.875Z,13.30
2022-10-01T16:52:43.071Z,13.20
2022-10-01T16:55:22.813Z,13.20
2022-10-01T16:57:50.914Z,13.20
2022-10-01T17:00:19.894Z,13.30
2022-10-01T17:02:46.923Z,13.10
2022-10-01T17:05:26.363Z,13.50
2022-10-01T17:07:54.048Z,13.00
2022-10-01T17:10:23.371Z,13.00
2022-10-01T17:12:50.495Z,13.30
2022-10-01T17:15:20.343Z,13.10
2022-10-01T17:17:47.224Z,12.80
2022-10-01T17:20:14.218Z,12.90
2022-10-01T17:22:43.386Z,13.00
2022-10-01T17:25:19.075Z,12.80
2022-10-01T17:27:45.978Z,12.60
2022-10-01T17:30:13.526Z,12.70
2022-10-01T17:32:43.539Z,12.60
2022-10-01T17:35:12.477Z,12.40
2022-10-01T17:37:39.639Z,12.50
2022-10-01T17:40:07.882Z,12.70
2022-10-01T17:42:35.628Z,12.70
2022-10-01T17:45:04.592Z,12.70
2022-10-01T17:47:31.275Z,12.60
2022-10-01T17:49:58.099Z,12.80
2022-10-01T17:52:25.159Z,12.60
2022-10-01T17:54:51.935Z,12.60
2022-10-01T17:57:18.716Z,12.70
2022-10-01T17:59:45.729Z,12.70
2022-10-01T18:02:36.494Z,12.70
2022-10-01T18:05:00.235Z,13.00
2022-10-01T18:07:27.311Z,12.70
2022-10-01T18:09:54.127Z,12.90
2022-10-01T18:12:21.238Z,12.90
2022-10-01T18:14:49.775Z,12.80
2022-10-01T18:17:16.536Z,12.70
2022-10-01T18:19:53.281Z,13.20
2022-10-01T18:22:21.093Z,12.80
2022-10-01T18:24:47.909Z,12.80
2022-10-01T18:27:14.911Z,12.90
2022-10-01T18:29:41.829Z,12.80
2022-10-01T18:32:22.386Z,12.80
2022-10-01T18:35:00.965Z,12.80
2022-10-01T18:37:43.820Z,12.80
2022-10-01T18:40:21.573Z,12.80
2022-10-01T18:43:12.587Z,12.80
2022-10-01T18:45:51.723Z,12.80
2022-10-01T18:48:51.486Z,12.90
2022-10-01T18:51:20.841Z,12.90
2022-10-01T18:54:19.471Z,12.90
2022-10-01T18:57:23.001Z,12.90
2022-10-01T19:00:12.940Z,12.90
2022-10-01T19:02:50.109Z,12.80
2022-10-01T19:05:38.060Z,12.80
2022-10-01T19:08:23.517Z,12.80
2022-10-01T19:11:02.171Z,12.90
2022-10-01T19:13:45.698Z,12.90
2022-10-01T19:16:18.330Z,13.10
2022-10-01T19:18:57.401Z,12.90
2022-10-01T19:21:31.896Z,12.90
2022-10-01T19:24:24.387Z,12.90
2022-10-01T19:27:20.124Z,12.80
2022-10-01T19:29:55.151Z,12.80
2022-10-01T23:29:02.899Z,12.40
2022-10-01T23:32:05.780Z,12.40
2022-10-01T23:34:52.213Z,12.50
2022-10-01T23:37:33.936Z,12.50
2022-10-01T23:40:07.446Z,12.50
2022-10-01T23:42:47.738Z,12.40
2022-10-01T23:45:22.610Z,12.50
2022-10-01T23:48:03.994Z,12.40
2022-10-01T23:50:36.499Z,12.40
2022-10-01T23:53:32.809Z,12.40
2022-10-01T23:56:21.253Z,12.40
2022-10-01T23:58:58.580Z,12.50
